createdAt,value
2022-10-09T00:01:12.649Z,101495.97
2022-10-09T00:03:41.946Z,101501.66
2022-10-09T00:06:11.654Z,101493.34
2022-10-09T00:08:40.242Z,101485.00
2022-10-09T00:11:08.725Z,101471.44
2022-10-09T00:13:36.637Z,101470.72
2022-10-09T00:16:10.404Z,101471.81
2022-10-09T00:18:37.592Z,101475.50
2022-10-09T00:21:06.275Z,101467.91
2022-10-09T00:23:33.338Z,101464.44
2022-10-09T00:26:01.661Z,101463.47
2022-10-09T00:28:35.340Z,101461.63
2022-10-09T00:31:09.208Z,101451.16
2022-10-09T00:33:37.133Z,101438.44
2022-10-09T00:36:09.766Z,101444.75
2022-10-09T00:38:36.920Z,101424.81
2022-10-09T00:41:04.164Z,101436.84
2022-10-09T00:43:55.788Z,101430.84
2022-10-09T00:46:41.118Z,101421.13
2022-10-09T00:49:13.486Z,101415.13
2022-10-09T00:51:43.409Z,101414.28
2022-10-09T00:54:13.586Z,101413.78
2022-10-09T00:56:40.569Z,101406.38
2022-10-09T00:59:08.176Z,101403.47
2022-10-09T01:01:35.230Z,101400.56
2022-10-09T01:04:02.126Z,101402.16
2022-10-09T01:06:41.299Z,101396.06
2022-10-09T01:09:20.076Z,101393.03
2022-10-09T01:12:12.923Z,101384.63
2022-10-09T01:14:51.915Z,101369.72
2022-10-09T01:17:33.031Z,101375.22
2022-10-09T01:20:02.777Z,101364.78
2022-10-09T01:22:32.655Z,101368.03
2022-10-09T01:25:06.873Z,101350.53
2022-10-09T01:27:37.602Z,101347.13
2022-10-09T01:30:09.214Z,101349.81
2022-10-09T01:32:41.372Z,101336.94
2022-10-09T01:35:11.146Z,101339.47
2022-10-09T01:37:40.792Z,101332.22
2022-10-09T01:40:09.330Z,101324.22
2022-10-09T01:42:36.281Z,101324.91
2022-10-09T01:45:03.632Z,101322.63
2022-10-09T01:47:30.779Z,101325.25
2022-10-09T01:50:23.214Z,101320.00
2022-10-09T01:53:07.722Z,101309.66
2022-10-09T01:56:03.649Z,101299.22
2022-10-09T01:58:35.765Z,101294.91
2022-10-09T02:01:15.717Z,101292.34
2022-10-09T02:03:46.923Z,101287.22
2022-10-09T02:06:16.258Z,101285.28
2022-10-09T02:08:45.919Z,101276.31
2022-10-09T02:11:17.438Z,101266.50
2022-10-09T02:13:46.626Z,101272.97
2022-10-09T02:16:29.433Z,101258.22
2022-10-09T02:19:01.964Z,101241.47
2022-10-09T02:21:54.509Z,101246.03
2022-10-09T02:24:22.943Z,101238.25
2022-10-09T02:26:53.159Z,101225.31
2022-10-09T02:29:20.671Z,101224.94
2022-10-09T02:31:47.721Z,101214.28
2022-10-09T02:34:18.196Z,101216.28
2022-10-09T02:36:46.633Z,101204.31
2022-10-09T02:39:14.246Z,101191.69
2022-10-09T02:41:41.177Z,101202.34
2022-10-09T02:44:08.493Z,101192.41
2022-10-09T02:46:35.702Z,101193.50
2022-10-09T02:49:02.831Z,101185.19
2022-10-09T02:51:29.777Z,101189.66
2022-10-09T02:53:57.338Z,101165.75
2022-10-09T02:56:24.380Z,101169.91
2022-10-09T02:58:51.487Z,101161.06
2022-10-09T03:01:19.120Z,101166.22
2022-10-09T03:03:46.607Z,101160.16
2022-10-09T03:06:16.490Z,101156.66
2022-10-09T03:08:46.030Z,101147.94
2022-10-09T03:11:15.268Z,101133.94
2022-10-09T03:13:42.066Z,101143.56
2022-10-09T03:16:11.874Z,101126.16
2022-10-09T03:18:39.494Z,101124.81
2022-10-09T03:21:08.028Z,101110.00
2022-10-09T03:23:36.035Z,101111.44
2022-10-09T03:26:06.678Z,101113.59
2022-10-09T03:28:36.080Z,101114.97
2022-10-09T03:31:03.663Z,101100.34
2022-10-09T03:33:30.674Z,101104.25
2022-10-09T03:35:57.622Z,101095.25
2022-10-09T03:38:24.625Z,101086.13
2022-10-09T03:40:51.620Z,101095.09
2022-10-09T03:43:18.823Z,101094.84
2022-10-09T03:45:45.706Z,101083.22
2022-10-09T03:48:13.628Z,101076.91
2022-10-09T03:50:41.655Z,101071.44
2022-10-09T03:53:10.395Z,101076.91
2022-10-09T03:55:37.647Z,101071.97
2022-10-09T03:58:04.945Z,101069.00
2022-10-09T16:08:50.975Z,100662.28
2022-10-09T16:11:21.903Z,100679.31
2022-10-09T16:13:52.385Z,100683.06
2022-10-09T16:16:22.973Z,100699.13
2022-10-09T16:18:49.917Z,100699.22
2022-10-09T16:21:22.278Z,100700.94
2022-10-09T16:23:53.288Z,100713.88
2022-10-09T16:26:23.238Z,100725.31
2022-10-09T16:28:51.931Z,100734.25
2022-10-09T16:31:21.620Z,100742.31
2022-10-09T16:33:48.725Z,100738.47
2022-10-09T16:36:16.026Z,100756.84
2022-10-09T16:38:42.881Z,100769.97
2022-10-09T16:41:18.061Z,100773.66
2022-10-09T16:43:47.101Z,100784.22
2022-10-09T16:46:26.049Z,100788.75
2022-10-09T16:48:55.216Z,100796.13
2022-10-09T16:51:30.672Z,100806.81
2022-10-09T16:54:00.189Z,100797.91
2022-10-09T16:56:30.152Z,100823.22
2022-10-09T16:59:00.007Z,100812.78
2022-10-09T17:01:28.522Z,100825.44
2022-10-09T17:04:00.153Z,100834.56
2022-10-09T17:06:27.969Z,100844.31
2022-10-09T17:08:57.764Z,100842.81
2022-10-09T17:11:26.077Z,100843.66
2022-10-09T17:13:56.898Z,100849.94
2022-10-09T17:16:26.691Z,100855.66
2022-10-09T17:18:54.865Z,100862.56
2022-10-09T17:21:21.883Z,100869.06
2022-10-09T17:23:52.706Z,100876.75
2022-10-09T17:26:20.891Z,100874.22
2022-10-09T17:28:48.761Z,100880.69
2022-10-09T17:31:18.564Z,100878.56
2022-10-09T17:33:48.503Z,100895.78
2022-10-09T17:36:18.691Z,100893.94
2022-10-09T17:38:46.500Z,100908.31
2022-10-09T17:41:15.243Z,100907.91
2022-10-09T17:43:42.392Z,100923.19
2022-10-09T17:46:09.348Z,100927.81
2022-10-09T17:48:39.455Z,100932.47
2022-10-09T17:51:06.343Z,100942.44
2022-10-09T17:53:33.295Z,100940.03
2022-10-09T17:56:03.772Z,100945.78
2022-10-09T17:58:31.067Z,100953.03
2022-10-09T18:00:58.418Z,100964.53
2022-10-09T18:03:25.334Z,100972.94
2022-10-09T18:05:53.080Z,100971.47
2022-10-09T18:08:20.396Z,100981.56
2022-10-09T18:10:47.647Z,100990.59
2022-10-09T18:13:15.007Z,100997.97
2022-10-09T18:15:44.199Z,101003.69
2022-10-09T18:18:11.848Z,101007.69
2022-10-09T18:20:40.338Z,101024.47
2022-10-09T18:23:09.032Z,101029.84
2022-10-09T18:25:41.350Z,101038.28
2022-10-09T18:28:08.526Z,101044.25
2022-10-09T18:30:41.283Z,101051.88
2022-10-09T18:33:08.233Z,101060.00
2022-10-09T18:35:37.234Z,101061.78
2022-10-09T18:38:04.941Z,101064.25
2022-10-09T18:40:32.562Z,101071.91
2022-10-09T18:42:59.534Z,101075.25
2022-10-09T18:45:26.658Z,101071.66
2022-10-09T18:47:53.886Z,101074.22
2022-10-09T18:50:22.577Z,101075.84
2022-10-09T18:52:49.877Z,101077.97
2022-10-09T18:55:19.174Z,101079.16
2022-10-09T18:57:47.531Z,101087.81
2022-10-09T19:00:15.944Z,101089.03
2022-10-09T19:02:43.200Z,101097.31
2022-10-09T19:05:10.592Z,101103.72
2022-10-09T19:07:38.243Z,101099.72
2022-10-09T19:10:07.199Z,101104.44
2022-10-09T19:12:34.767Z,101107.41
2022-10-09T19:15:02.107Z,101105.16
2022-10-09T19:17:29.205Z,101108.13
2022-10-09T19:19:56.206Z,101112.06
2022-10-09T19:22:24.143Z,101115.91
2022-10-09T19:24:51.227Z,101122.22
2022-10-09T19:27:18.257Z,101118.19
2022-10-09T19:29:45.212Z,101123.75
2022-10-09T19:32:12.578Z,101121.47
2022-10-09T19:34:40.223Z,101121.75
2022-10-09T19:37:07.905Z,101129.06
2022-10-09T19:39:34.874Z,101129.25
2022-10-09T19:42:02.400Z,101135.53
2022-10-09T19:44:29.357Z,101137.53
2022-10-09T19:46:56.641Z,101141.31
2022-10-09T19:49:23.688Z,101152.00
2022-10-09T19:51:50.944Z,101148.78
2022-10-09T19:54:18.042Z,101153.31
2022-10-09T19:56:45.341Z,101153.47
2022-10-09T19:59:12.964Z,101159.72
2022-10-09T20:01:40.662Z,101165.97
2022-10-09T20:04:10.784Z,101162.75
2022-10-09T20:06:40.300Z,101157.00
2022-10-09T20:09:09.141Z,101165.59
2022-10-09T20:11:36.751Z,101170.03
2022-10-09T20:14:04.551Z,101175.41
2022-10-09T20:16:33.707Z,101175.53
2022-10-09T20:19:02.025Z,101177.44
2022-10-09T20:21:30.667Z,101183.59
2022-10-09T20:24:00.574Z,101186.34
2022-10-09T20:26:28.499Z,101186.50
2022-10-09T20:28:55.675Z,101189.31
2022-10-09T20:31:25.619Z,101190.91
2022-10-09T20:33:53.962Z,101198.81
2022-10-09T20:36:33.583Z,101201.66
2022-10-09T20:39:03.908Z,101209.47
2022-10-09T20:41:31.627Z,101223.44
2022-10-09T20:44:00.645Z,101226.13
2022-10-09T20:46:30.224Z,101225.38
2022-10-09T20:48:57.520Z,101229.72
2022-10-09T20:51:25.286Z,101231.63
2022-10-09T20:53:56.054Z,101236.00
2022-10-09T20:56:24.663Z,101254.97
2022-10-09T20:58:51.740Z,101249.63
2022-10-09T21:01:19.716Z,101253.13
2022-10-09T21:03:47.085Z,101251.59
2022-10-09T21:06:16.946Z,101260.50
2022-10-09T21:08:44.189Z,101254.75
2022-10-09T21:11:13.901Z,101264.38
2022-10-09T21:13:40.803Z,101264.59
2022-10-09T21:16:10.771Z,101269.00
2022-10-09T21:18:38.831Z,101269.03
2022-10-09T21:21:17.146Z,101270.72
2022-10-09T21:23:45.590Z,101272.31
2022-10-09T21:26:17.127Z,101276.56
2022-10-09T21:28:44.164Z,101282.53
2022-10-09T21:31:23.573Z,101287.16
2022-10-09T21:33:50.822Z,101284.06
2022-10-09T21:36:25.811Z,101294.59
2022-10-09T21:38:52.752Z,101300.69
2022-10-09T21:41:19.547Z,101306.81
2022-10-09T21:43:46.682Z,101306.06
2022-10-09T21:46:14.866Z,101307.94
2022-10-09T21:48:41.703Z,101311.53
2022-10-09T21:51:08.708Z,101307.31
2022-10-09T21:53:35.660Z,101321.16
2022-10-09T21:56:04.349Z,101319.47
2022-10-09T21:58:31.195Z,101333.31
2022-10-09T22:01:00.406Z,101338.50
2022-10-09T22:03:28.951Z,101344.63
2022-10-09T22:05:55.951Z,101353.25
2022-10-09T22:08:23.312Z,101354.88
2022-10-09T22:10:50.730Z,101350.56
2022-10-09T22:13:18.673Z,101359.25
2022-10-09T22:15:50.167Z,101362.81
2022-10-09T22:18:17.946Z,101370.69
2022-10-09T22:20:47.443Z,101380.28
2022-10-09T22:23:15.006Z,101384.66
2022-10-09T22:25:42.049Z,101383.00
2022-10-09T22:28:08.925Z,101387.41
2022-10-09T22:30:35.788Z,101388.41
2022-10-09T22:33:02.690Z,101386.75
2022-10-09T22:35:29.479Z,101390.28
2022-10-09T22:37:57.508Z,101397.25
2022-10-09T22:40:24.847Z,101405.09
2022-10-09T22:42:51.882Z,101404.22
2022-10-09T22:45:19.155Z,101412.78
2022-10-09T22:47:49.217Z,101409.25
2022-10-09T22:50:16.055Z,101410.19
2022-10-09T22:52:42.751Z,101415.41
2022-10-09T22:55:09.844Z,101422.34
2022-10-09T22:57:36.649Z,101418.84
2022-10-09T23:00:05.175Z,101416.22
2022-10-09T23:02:31.999Z,101430.72
2022-10-09T23:04:58.860Z,101428.19
2022-10-09T23:07:25.809Z,101439.44
2022-10-09T23:09:52.706Z,101448.09
2022-10-09T23:12:19.592Z,101448.13
2022-10-09T23:14:46.413Z,101451.66
2022-10-09T23:17:13.211Z,101446.56
2022-10-09T23:19:40.014Z,101458.72
2022-10-09T23:22:06.907Z,101451.91
2022-10-09T23:24:33.752Z,101451.94
2022-10-09T23:27:00.630Z,101457.13
2022-10-09T23:29:27.432Z,101452.00
2022-10-09T23:31:54.286Z,101457.19
2022-10-09T23:34:21.337Z,101458.09
2022-10-09T23:36:48.167Z,101465.94
2022-10-09T23:39:15.169Z,101463.41
2022-10-09T23:41:42.015Z,101466.00
2022-10-09T23:44:08.965Z,101464.31
2022-10-09T23:46:37.749Z,101471.25
2022-10-09T23:49:05.448Z,101470.44
2022-10-09T23:51:32.459Z,101473.94
2022-10-09T23:54:00.269Z,101480.88
2022-10-09T23:56:30.637Z,101490.41
2022-10-09T23:58:59.068Z,101490.47
